Flugplatz kirn (UL)

Hier findest Du alle Informationen zum Flugplatz kirn (UL).

Informationen für Piloten zum Flugplatz kirn

Hier findest Du alle relevanten Informationen, die Du als Pilot benötigst, um kirn anzufliegen.

Flugplatz: kirn ICAO-Code: UL Flugplatz
Frequenz Turm: 118,205 Mhz GAFOR Gebiet: -
Frequenz Ground: 118,205 Mhz Mogas: ja
Platzrunde: W 2000 ft Landegebühr: -
Platzhöhe: - Sunrise: 05:23 Uhr UTC
Pisten: 14/32 - 750 m x 30 m, GRAS Sunset: 17:17 Uhr UTC

Flugwetter am Flugplatz kirn

Die METAR Information stammen aus EDFH (26.59 km entfernt).

METAR Code:
2022/09/07 07:20
EDFH 070720Z 26005KT 230V290 0700 R21/0600U FG FEW002 16/16 Q1015

Flugschulen am Flugplatz kirn

Am Flugplatz kirn gibt es leider keine Flugschule.

Benachbarte Flugplätze und Flugschulen

Es gibt 23 weitere Flugplätze in einem Umkreis von 50 km um den Flugplatz kirn.

Jetzt anmelden

Passwort vergessen

Umfrage Archiv

Sendet Ihr ADS-B und/oder FLARM?

Ja
83.8 %
Nein
16.2 %
Stimmen: 222 | Diskussion
Anzeige: Roland Aircraft
Statistik Alle Mitglieder

Aktuell sind 40 Besucher online.

Anzeige: ULPower Aero Engines Anzeige: Pocket FMS